sensor_id;sensor_type;location;lat;lon;timestamp;P1;durP1;ratioP1;P2;durP2;ratioP2
75930;SDS011;64609;47.052;15.462;2023-02-28T00:00:20;9.80;;;5.82;;
75930;SDS011;64609;47.052;15.462;2023-02-28T00:02:46;11.10;;;5.70;;
75930;SDS011;64609;47.052;15.462;2023-02-28T00:05:13;9.40;;;5.57;;
75930;SDS011;64609;47.052;15.462;2023-02-28T00:07:40;9.63;;;5.68;;
75930;SDS011;64609;47.052;15.462;2023-02-28T00:10:09;8.30;;;5.60;;
75930;SDS011;64609;47.052;15.462;2023-02-28T00:12:37;8.88;;;5.43;;
75930;SDS011;64609;47.052;15.462;2023-02-28T00:15:06;10.13;;;5.97;;
75930;SDS011;64609;47.052;15.462;2023-02-28T00:17:36;11.00;;;6.53;;
75930;SDS011;64609;47.052;15.462;2023-02-28T00:20:03;14.05;;;8.23;;
75930;SDS011;64609;47.052;15.462;2023-02-28T00:22:33;16.17;;;8.50;;
75930;SDS011;64609;47.052;15.462;2023-02-28T00:24:58;13.75;;;6.55;;
75930;SDS011;64609;47.052;15.462;2023-02-28T00:27:24;12.10;;;6.68;;
75930;SDS011;64609;47.052;15.462;2023-02-28T00:29:50;14.48;;;7.40;;
75930;SDS011;64609;47.052;15.462;2023-02-28T00:32:15;11.05;;;7.78;;
75930;SDS011;64609;47.052;15.462;2023-02-28T00:34:42;12.95;;;7.88;;
75930;SDS011;64609;47.052;15.462;2023-02-28T00:37:09;11.73;;;7.47;;
75930;SDS011;64609;47.052;15.462;2023-02-28T00:39:37;17.90;;;7.60;;
75930;SDS011;64609;47.052;15.462;2023-02-28T00:42:03;12.30;;;7.40;;
75930;SDS011;64609;47.052;15.462;2023-02-28T00:44:30;9.85;;;6.53;;
75930;SDS011;64609;47.052;15.462;2023-02-28T00:46:56;11.32;;;7.28;;
75930;SDS011;64609;47.052;15.462;2023-02-28T00:49:23;11.88;;;7.60;;
75930;SDS011;64609;47.052;15.462;2023-02-28T00:51:49;11.30;;;7.30;;
75930;SDS011;64609;47.052;15.462;2023-02-28T00:54:15;15.30;;;8.30;;
75930;SDS011;64609;47.052;15.462;2023-02-28T00:56:41;13.32;;;8.32;;
75930;SDS011;64609;47.052;15.462;2023-02-28T00:59:06;15.70;;;8.77;;
75930;SDS011;64609;47.052;15.462;2023-02-28T01:01:32;19.30;;;10.30;;
75930;SDS011;64609;47.052;15.462;2023-02-28T01:03:58;19.70;;;11.77;;
75930;SDS011;64609;47.052;15.462;2023-02-28T01:06:24;20.20;;;11.05;;
75930;SDS011;64609;47.052;15.462;2023-02-28T01:08:49;16.73;;;9.95;;
75930;SDS011;64609;47.052;15.462;2023-02-28T01:11:18;14.05;;;8.68;;
75930;SDS011;64609;47.052;15.462;2023-02-28T01:13:44;15.70;;;7.70;;
75930;SDS011;64609;47.052;15.462;2023-02-28T01:16:11;13.65;;;8.25;;
75930;SDS011;64609;47.052;15.462;2023-02-28T01:18:37;16.73;;;10.75;;
75930;SDS011;64609;47.052;15.462;2023-02-28T01:21:13;19.90;;;11.82;;
75930;SDS011;64609;47.052;15.462;2023-02-28T01:23:41;17.25;;;8.77;;
75930;SDS011;64609;47.052;15.462;2023-02-28T01:26:08;13.38;;;8.32;;
75930;SDS011;64609;47.052;15.462;2023-02-28T01:28:36;13.82;;;7.97;;
75930;SDS011;64609;47.052;15.462;2023-02-28T01:31:02;15.00;;;7.35;;
75930;SDS011;64609;47.052;15.462;2023-02-28T01:33:28;12.18;;;7.60;;
75930;SDS011;64609;47.052;15.462;2023-02-28T01:36:03;16.00;;;8.93;;
75930;SDS011;64609;47.052;15.462;2023-02-28T01:38:36;18.65;;;8.15;;
75930;SDS011;64609;47.052;15.462;2023-02-28T01:41:02;15.45;;;8.10;;
75930;SDS011;64609;47.052;15.462;2023-02-28T01:43:30;20.25;;;10.32;;
75930;SDS011;64609;47.052;15.462;2023-02-28T01:45:57;20.58;;;9.45;;
75930;SDS011;64609;47.052;15.462;2023-02-28T01:48:34;11.73;;;7.50;;
75930;SDS011;64609;47.052;15.462;2023-02-28T01:51:06;8.88;;;6.20;;
75930;SDS011;64609;47.052;15.462;2023-02-28T01:53:39;11.30;;;6.70;;
75930;SDS011;64609;47.052;15.462;2023-02-28T01:56:11;10.65;;;7.03;;
75930;SDS011;64609;47.052;15.462;2023-02-28T01:58:45;10.32;;;6.38;;
75930;SDS011;64609;47.052;15.462;2023-02-28T02:01:16;12.32;;;6.80;;
75930;SDS011;64609;47.052;15.462;2023-02-28T02:03:49;9.27;;;6.78;;
75930;SDS011;64609;47.052;15.462;2023-02-28T02:06:23;11.85;;;6.65;;
75930;SDS011;64609;47.052;15.462;2023-02-28T02:08:52;13.00;;;7.40;;
75930;SDS011;64609;47.052;15.462;2023-02-28T02:11:19;9.82;;;6.55;;
75930;SDS011;64609;47.052;15.462;2023-02-28T02:19:53;15.00;;;7.00;;
75930;SDS011;64609;47.052;15.462;2023-02-28T02:22:38;11.68;;;6.70;;
75930;SDS011;64609;47.052;15.462;2023-02-28T02:28:22;10.43;;;6.78;;
75930;SDS011;64609;47.052;15.462;2023-02-28T02:36:25;10.45;;;6.57;;
75930;SDS011;64609;47.052;15.462;2023-02-28T02:39:02;13.98;;;7.45;;
75930;SDS011;64609;47.052;15.462;2023-02-28T02:41:53;11.82;;;6.90;;
75930;SDS011;64609;47.052;15.462;2023-02-28T02:46:58;12.00;;;7.35;;
75930;SDS011;64609;47.052;15.462;2023-02-28T02:49:30;10.70;;;6.93;;
75930;SDS011;64609;47.052;15.462;2023-02-28T02:52:00;10.68;;;6.65;;
75930;SDS011;64609;47.052;15.462;2023-02-28T02:54:31;13.43;;;6.95;;
75930;SDS011;64609;47.052;15.462;2023-02-28T02:57:06;11.25;;;6.53;;
75930;SDS011;64609;47.052;15.462;2023-02-28T02:59:37;7.72;;;5.93;;
75930;SDS011;64609;47.052;15.462;2023-02-28T03:02:06;10.93;;;6.43;;
75930;SDS011;64609;47.052;15.462;2023-02-28T03:04:36;10.90;;;6.40;;
75930;SDS011;64609;47.052;15.462;2023-02-28T03:07:11;12.35;;;6.50;;
75930;SDS011;64609;47.052;15.462;2023-02-28T03:09:37;10.25;;;6.20;;
75930;SDS011;64609;47.052;15.462;2023-02-28T03:12:03;15.55;;;6.82;;
75930;SDS011;64609;47.052;15.462;2023-02-28T03:20:02;11.35;;;6.88;;
75930;SDS011;64609;47.052;15.462;2023-02-28T03:22:46;10.98;;;7.20;;
75930;SDS011;64609;47.052;15.462;2023-02-28T03:31:17;9.43;;;6.05;;
75930;SDS011;64609;47.052;15.462;2023-02-28T03:33:49;11.50;;;6.70;;
75930;SDS011;64609;47.052;15.462;2023-02-28T03:36:21;12.35;;;6.20;;
75930;SDS011;64609;47.052;15.462;2023-02-28T03:41:43;11.00;;;6.28;;
75930;SDS011;64609;47.052;15.462;2023-02-28T03:46:57;12.85;;;8.23;;
75930;SDS011;64609;47.052;15.462;2023-02-28T03:49:38;9.10;;;6.38;;
75930;SDS011;64609;47.052;15.462;2023-02-28T03:52:08;12.25;;;7.78;;
75930;SDS011;64609;47.052;15.462;2023-02-28T03:54:36;11.18;;;7.05;;
75930;SDS011;64609;47.052;15.462;2023-02-28T03:57:26;9.95;;;6.78;;
75930;SDS011;64609;47.052;15.462;2023-02-28T04:00:02;11.82;;;6.28;;
75930;SDS011;64609;47.052;15.462;2023-02-28T04:02:33;11.52;;;6.45;;
75930;SDS011;64609;47.052;15.462;2023-02-28T04:04:59;12.35;;;7.03;;
75930;SDS011;64609;47.052;15.462;2023-02-28T04:07:28;9.70;;;6.50;;
75930;SDS011;64609;47.052;15.462;2023-02-28T04:10:02;13.10;;;7.07;;
75930;SDS011;64609;47.052;15.462;2023-02-28T04:12:28;10.07;;;6.80;;
75930;SDS011;64609;47.052;15.462;2023-02-28T04:14:54;16.70;;;6.35;;
75930;SDS011;64609;47.052;15.462;2023-02-28T04:17:20;8.88;;;5.72;;
75930;SDS011;64609;47.052;15.462;2023-02-28T04:19:45;8.38;;;6.20;;
75930;SDS011;64609;47.052;15.462;2023-02-28T04:22:11;12.13;;;6.38;;
75930;SDS011;64609;47.052;15.462;2023-02-28T04:24:37;13.18;;;7.32;;
75930;SDS011;64609;47.052;15.462;2023-02-28T04:27:06;13.88;;;7.82;;
75930;SDS011;64609;47.052;15.462;2023-02-28T04:29:33;11.18;;;6.60;;
75930;SDS011;64609;47.052;15.462;2023-02-28T04:31:59;12.60;;;7.03;;
75930;SDS011;64609;47.052;15.462;2023-02-28T04:34:27;11.85;;;7.10;;
75930;SDS011;64609;47.052;15.462;2023-02-28T04:36:54;10.45;;;6.95;;
75930;SDS011;64609;47.052;15.462;2023-02-28T04:39:21;10.95;;;6.72;;
75930;SDS011;64609;47.052;15.462;2023-02-28T04:41:47;12.38;;;7.43;;
75930;SDS011;64609;47.052;15.462;2023-02-28T04:44:13;10.52;;;6.82;;
75930;SDS011;64609;47.052;15.462;2023-02-28T04:46:39;14.02;;;7.25;;
75930;SDS011;64609;47.052;15.462;2023-02-28T04:49:05;11.70;;;7.50;;
75930;SDS011;64609;47.052;15.462;2023-02-28T04:51:31;12.63;;;8.38;;
75930;SDS011;64609;47.052;15.462;2023-02-28T04:53:57;13.40;;;8.50;;
75930;SDS011;64609;47.052;15.462;2023-02-28T04:56:22;14.02;;;8.25;;
75930;SDS011;64609;47.052;15.462;2023-02-28T04:58:48;10.75;;;7.30;;
75930;SDS011;64609;47.052;15.462;2023-02-28T05:03:43;12.57;;;7.88;;
75930;SDS011;64609;47.052;15.462;2023-02-28T05:06:09;12.32;;;6.93;;
75930;SDS011;64609;47.052;15.462;2023-02-28T05:08:36;10.52;;;7.05;;
75930;SDS011;64609;47.052;15.462;2023-02-28T05:11:02;15.73;;;8.10;;
75930;SDS011;64609;47.052;15.462;2023-02-28T05:13:28;13.80;;;8.60;;
75930;SDS011;64609;47.052;15.462;2023-02-28T05:15:54;14.98;;;7.93;;
75930;SDS011;64609;47.052;15.462;2023-02-28T05:18:20;17.10;;;8.80;;
75930;SDS011;64609;47.052;15.462;2023-02-28T05:20:46;14.60;;;8.65;;
75930;SDS011;64609;47.052;15.462;2023-02-28T05:23:12;13.70;;;8.93;;
75930;SDS011;64609;47.052;15.462;2023-02-28T05:25:39;11.90;;;7.93;;
75930;SDS011;64609;47.052;15.462;2023-02-28T05:28:05;13.38;;;8.38;;
75930;SDS011;64609;47.052;15.462;2023-02-28T05:30:31;13.23;;;7.78;;
75930;SDS011;64609;47.052;15.462;2023-02-28T05:32:58;12.68;;;7.55;;
75930;SDS011;64609;47.052;15.462;2023-02-28T05:35:24;17.02;;;7.85;;
75930;SDS011;64609;47.052;15.462;2023-02-28T05:37:50;12.77;;;8.32;;
75930;SDS011;64609;47.052;15.462;2023-02-28T05:40:16;12.23;;;8.30;;
75930;SDS011;64609;47.052;15.462;2023-02-28T05:42:44;13.52;;;8.55;;
75930;SDS011;64609;47.052;15.462;2023-02-28T05:45:10;13.18;;;8.27;;
75930;SDS011;64609;47.052;15.462;2023-02-28T05:47:36;11.52;;;7.80;;
75930;SDS011;64609;47.052;15.462;2023-02-28T05:50:02;12.82;;;8.25;;
75930;SDS011;64609;47.052;15.462;2023-02-28T05:52:28;13.43;;;8.10;;
75930;SDS011;64609;47.052;15.462;2023-02-28T05:54:55;15.52;;;8.88;;
75930;SDS011;64609;47.052;15.462;2023-02-28T05:57:21;13.23;;;8.43;;
75930;SDS011;64609;47.052;15.462;2023-02-28T05:59:47;13.45;;;8.48;;
75930;SDS011;64609;47.052;15.462;2023-02-28T06:02:13;14.38;;;8.30;;
75930;SDS011;64609;47.052;15.462;2023-02-28T06:04:40;14.10;;;8.23;;
75930;SDS011;64609;47.052;15.462;2023-02-28T06:07:06;13.63;;;8.27;;
75930;SDS011;64609;47.052;15.462;2023-02-28T06:09:33;12.68;;;8.25;;
75930;SDS011;64609;47.052;15.462;2023-02-28T06:11:59;13.68;;;9.00;;
75930;SDS011;64609;47.052;15.462;2023-02-28T06:14:27;15.15;;;8.88;;
75930;SDS011;64609;47.052;15.462;2023-02-28T06:16:52;14.30;;;9.13;;
75930;SDS011;64609;47.052;15.462;2023-02-28T06:19:18;11.98;;;8.65;;
75930;SDS011;64609;47.052;15.462;2023-02-28T06:21:43;14.55;;;8.85;;
75930;SDS011;64609;47.052;15.462;2023-02-28T06:24:10;13.45;;;8.75;;
75930;SDS011;64609;47.052;15.462;2023-02-28T06:26:35;14.80;;;9.25;;
75930;SDS011;64609;47.052;15.462;2023-02-28T06:29:01;13.13;;;9.05;;
75930;SDS011;64609;47.052;15.462;2023-02-28T06:31:27;13.70;;;9.13;;
75930;SDS011;64609;47.052;15.462;2023-02-28T06:33:54;14.23;;;9.52;;
75930;SDS011;64609;47.052;15.462;2023-02-28T06:36:20;11.38;;;8.38;;
75930;SDS011;64609;47.052;15.462;2023-02-28T06:38:46;13.15;;;9.15;;
75930;SDS011;64609;47.052;15.462;2023-02-28T06:41:16;14.90;;;9.27;;
75930;SDS011;64609;47.052;15.462;2023-02-28T06:43:43;16.35;;;9.23;;
75930;SDS011;64609;47.052;15.462;2023-02-28T06:46:11;14.45;;;9.82;;
75930;SDS011;64609;47.052;15.462;2023-02-28T06:48:38;14.30;;;9.00;;
75930;SDS011;64609;47.052;15.462;2023-02-28T06:51:11;14.00;;;9.30;;
75930;SDS011;64609;47.052;15.462;2023-02-28T06:53:39;12.77;;;9.43;;
75930;SDS011;64609;47.052;15.462;2023-02-28T06:56:12;17.80;;;10.43;;
75930;SDS011;64609;47.052;15.462;2023-02-28T06:58:39;19.83;;;10.85;;
75930;SDS011;64609;47.052;15.462;2023-02-28T07:01:05;20.83;;;10.00;;
75930;SDS011;64609;47.052;15.462;2023-02-28T07:03:32;17.60;;;10.32;;
75930;SDS011;64609;47.052;15.462;2023-02-28T07:05:58;18.65;;;10.20;;
75930;SDS011;64609;47.052;15.462;2023-02-28T07:08:24;16.02;;;9.88;;
75930;SDS011;64609;47.052;15.462;2023-02-28T07:10:53;16.75;;;10.20;;
75930;SDS011;64609;47.052;15.462;2023-02-28T07:13:19;17.67;;;10.60;;
75930;SDS011;64609;47.052;15.462;2023-02-28T07:15:52;15.20;;;9.98;;
75930;SDS011;64609;47.052;15.462;2023-02-28T07:18:22;16.73;;;10.05;;
75930;SDS011;64609;47.052;15.462;2023-02-28T07:20:48;16.60;;;10.45;;
75930;SDS011;64609;47.052;15.462;2023-02-28T07:23:14;17.35;;;10.38;;
75930;SDS011;64609;47.052;15.462;2023-02-28T07:25:40;22.65;;;11.05;;
75930;SDS011;64609;47.052;15.462;2023-02-28T07:28:06;15.65;;;11.02;;
75930;SDS011;64609;47.052;15.462;2023-02-28T07:30:31;19.73;;;10.93;;
75930;SDS011;64609;47.052;15.462;2023-02-28T07:32:57;15.45;;;10.40;;
75930;SDS011;64609;47.052;15.462;2023-02-28T07:35:22;17.70;;;9.45;;
75930;SDS011;64609;47.052;15.462;2023-02-28T07:37:48;14.77;;;9.38;;
75930;SDS011;64609;47.052;15.462;2023-02-28T07:40:14;17.48;;;9.48;;
75930;SDS011;64609;47.052;15.462;2023-02-28T07:42:40;20.23;;;10.25;;
75930;SDS011;64609;47.052;15.462;2023-02-28T07:45:06;19.35;;;9.70;;
75930;SDS011;64609;47.052;15.462;2023-02-28T07:47:36;18.90;;;10.10;;
75930;SDS011;64609;47.052;15.462;2023-02-28T07:50:06;17.35;;;10.63;;
75930;SDS011;64609;47.052;15.462;2023-02-28T07:52:34;16.88;;;10.85;;
75930;SDS011;64609;47.052;15.462;2023-02-28T07:55:00;15.05;;;10.13;;
75930;SDS011;64609;47.052;15.462;2023-02-28T07:57:26;15.55;;;10.60;;
75930;SDS011;64609;47.052;15.462;2023-02-28T07:59:51;19.63;;;10.90;;
75930;SDS011;64609;47.052;15.462;2023-02-28T08:02:17;17.85;;;10.75;;
75930;SDS011;64609;47.052;15.462;2023-02-28T08:04:44;13.98;;;9.85;;
75930;SDS011;64609;47.052;15.462;2023-02-28T08:07:12;18.05;;;10.45;;
75930;SDS011;64609;47.052;15.462;2023-02-28T08:09:38;19.42;;;10.40;;
75930;SDS011;64609;47.052;15.462;2023-02-28T08:12:07;17.92;;;10.20;;
75930;SDS011;64609;47.052;15.462;2023-02-28T08:14:34;17.90;;;10.38;;
75930;SDS011;64609;47.052;15.462;2023-02-28T08:16:59;18.17;;;10.68;;
75930;SDS011;64609;47.052;15.462;2023-02-28T08:19:25;16.35;;;10.32;;
75930;SDS011;64609;47.052;15.462;2023-02-28T08:21:51;16.95;;;10.70;;
75930;SDS011;64609;47.052;15.462;2023-02-28T08:24:16;17.63;;;10.75;;
75930;SDS011;64609;47.052;15.462;2023-02-28T08:26:42;17.88;;;11.02;;
75930;SDS011;64609;47.052;15.462;2023-02-28T08:29:08;17.13;;;10.50;;
75930;SDS011;64609;47.052;15.462;2023-02-28T08:31:33;15.68;;;10.27;;
75930;SDS011;64609;47.052;15.462;2023-02-28T08:34:04;16.77;;;10.85;;
75930;SDS011;64609;47.052;15.462;2023-02-28T08:36:30;17.38;;;10.50;;
75930;SDS011;64609;47.052;15.462;2023-02-28T08:38:56;17.98;;;10.85;;
75930;SDS011;64609;47.052;15.462;2023-02-28T08:41:23;18.27;;;10.85;;
75930;SDS011;64609;47.052;15.462;2023-02-28T08:43:48;15.75;;;10.63;;
75930;SDS011;64609;47.052;15.462;2023-02-28T08:46:14;16.70;;;10.85;;
75930;SDS011;64609;47.052;15.462;2023-02-28T08:48:40;14.88;;;10.23;;
75930;SDS011;64609;47.052;15.462;2023-02-28T08:51:07;17.58;;;10.75;;
75930;SDS011;64609;47.052;15.462;2023-02-28T08:53:35;13.82;;;10.07;;
75930;SDS011;64609;47.052;15.462;2023-02-28T08:56:09;18.23;;;11.18;;
75930;SDS011;64609;47.052;15.462;2023-02-28T08:58:36;17.90;;;11.32;;
75930;SDS011;64609;47.052;15.462;2023-02-28T09:03:57;16.23;;;10.60;;
75930;SDS011;64609;47.052;15.462;2023-02-28T09:06:24;22.73;;;11.35;;
75930;SDS011;64609;47.052;15.462;2023-02-28T09:08:51;18.38;;;11.13;;
75930;SDS011;64609;47.052;15.462;2023-02-28T09:11:17;16.30;;;10.93;;
75930;SDS011;64609;47.052;15.462;2023-02-28T09:13:44;15.52;;;10.98;;
75930;SDS011;64609;47.052;15.462;2023-02-28T09:16:11;16.90;;;10.57;;
75930;SDS011;64609;47.052;15.462;2023-02-28T09:18:39;21.20;;;12.00;;
75930;SDS011;64609;47.052;15.462;2023-02-28T09:21:05;15.40;;;11.18;;
75930;SDS011;64609;47.052;15.462;2023-02-28T09:23:32;17.00;;;11.52;;
75930;SDS011;64609;47.052;15.462;2023-02-28T09:25:58;16.73;;;10.95;;
75930;SDS011;64609;47.052;15.462;2023-02-28T09:28:23;15.93;;;10.95;;
75930;SDS011;64609;47.052;15.462;2023-02-28T09:30:50;19.10;;;10.80;;
75930;SDS011;64609;47.052;15.462;2023-02-28T09:33:18;16.77;;;10.48;;
75930;SDS011;64609;47.052;15.462;2023-02-28T09:35:46;17.27;;;11.13;;
75930;SDS011;64609;47.052;15.462;2023-02-28T09:38:12;18.50;;;11.38;;
75930;SDS011;64609;47.052;15.462;2023-02-28T09:40:57;18.73;;;10.65;;
75930;SDS011;64609;47.052;15.462;2023-02-28T09:43:26;18.83;;;11.65;;
75930;SDS011;64609;47.052;15.462;2023-02-28T09:45:59;18.50;;;11.95;;
75930;SDS011;64609;47.052;15.462;2023-02-28T09:48:46;16.15;;;10.93;;
75930;SDS011;64609;47.052;15.462;2023-02-28T09:56:50;18.30;;;10.90;;
75930;SDS011;64609;47.052;15.462;2023-02-28T10:04:57;24.95;;;11.52;;
75930;SDS011;64609;47.052;15.462;2023-02-28T10:13:13;16.58;;;11.35;;
75930;SDS011;64609;47.052;15.462;2023-02-28T10:15:56;18.20;;;12.15;;
75930;SDS011;64609;47.052;15.462;2023-02-28T10:18:30;19.13;;;11.38;;
75930;SDS011;64609;47.052;15.462;2023-02-28T10:21:08;20.10;;;11.98;;
75930;SDS011;64609;47.052;15.462;2023-02-28T10:23:46;21.45;;;11.73;;
75930;SDS011;64609;47.052;15.462;2023-02-28T10:26:13;21.95;;;11.48;;
75930;SDS011;64609;47.052;15.462;2023-02-28T10:28:41;16.25;;;11.35;;
75930;SDS011;64609;47.052;15.462;2023-02-28T10:31:08;18.98;;;12.25;;
75930;SDS011;64609;47.052;15.462;2023-02-28T10:33:42;18.30;;;11.75;;
75930;SDS011;64609;47.052;15.462;2023-02-28T10:36:10;20.48;;;12.05;;
75930;SDS011;64609;47.052;15.462;2023-02-28T10:38:41;17.02;;;11.40;;
75930;SDS011;64609;47.052;15.462;2023-02-28T10:41:11;21.85;;;12.10;;
75930;SDS011;64609;47.052;15.462;2023-02-28T10:43:51;21.40;;;11.93;;
75930;SDS011;64609;47.052;15.462;2023-02-28T10:46:18;16.50;;;11.45;;
75930;SDS011;64609;47.052;15.462;2023-02-28T10:48:59;19.48;;;12.55;;
75930;SDS011;64609;47.052;15.462;2023-02-28T10:51:37;18.50;;;12.63;;
75930;SDS011;64609;47.052;15.462;2023-02-28T10:54:04;19.58;;;12.55;;
75930;SDS011;64609;47.052;15.462;2023-02-28T10:56:30;20.27;;;12.30;;
75930;SDS011;64609;47.052;15.462;2023-02-28T11:01:47;17.52;;;11.57;;
75930;SDS011;64609;47.052;15.462;2023-02-28T11:09:50;22.60;;;12.45;;
75930;SDS011;64609;47.052;15.462;2023-02-28T11:12:28;18.10;;;11.85;;
75930;SDS011;64609;47.052;15.462;2023-02-28T11:15:14;19.23;;;12.32;;
75930;SDS011;64609;47.052;15.462;2023-02-28T11:20:23;22.60;;;12.57;;
75930;SDS011;64609;47.052;15.462;2023-02-28T11:22:51;22.25;;;12.68;;
75930;SDS011;64609;47.052;15.462;2023-02-28T11:25:30;21.88;;;12.57;;
75930;SDS011;64609;47.052;15.462;2023-02-28T11:28:03;22.88;;;12.93;;
75930;SDS011;64609;47.052;15.462;2023-02-28T11:30:38;18.05;;;12.20;;
75930;SDS011;64609;47.052;15.462;2023-02-28T11:33:22;20.90;;;12.50;;
75930;SDS011;64609;47.052;15.462;2023-02-28T11:35:52;20.25;;;13.05;;
75930;SDS011;64609;47.052;15.462;2023-02-28T11:38:24;22.98;;;13.15;;
75930;SDS011;64609;47.052;15.462;2023-02-28T11:48:47;23.42;;;13.65;;
75930;SDS011;64609;47.052;15.462;2023-02-28T11:51:23;20.50;;;12.88;;
75930;SDS011;64609;47.052;15.462;2023-02-28T11:54:08;23.52;;;13.90;;
75930;SDS011;64609;47.052;15.462;2023-02-28T11:59:54;24.15;;;13.95;;
75930;SDS011;64609;47.052;15.462;2023-02-28T12:02:49;22.20;;;13.40;;
75930;SDS011;64609;47.052;15.462;2023-02-28T12:11:11;23.83;;;13.88;;
75930;SDS011;64609;47.052;15.462;2023-02-28T12:13:56;22.40;;;13.88;;
75930;SDS011;64609;47.052;15.462;2023-02-28T12:19:20;23.35;;;14.02;;
75930;SDS011;64609;47.052;15.462;2023-02-28T12:26:55;20.92;;;13.98;;
75930;SDS011;64609;47.052;15.462;2023-02-28T12:29:26;27.05;;;14.80;;
75930;SDS011;64609;47.052;15.462;2023-02-28T12:34:45;24.40;;;14.55;;
75930;SDS011;64609;47.052;15.462;2023-02-28T12:37:19;22.33;;;14.10;;
75930;SDS011;64609;47.052;15.462;2023-02-28T12:39:54;24.42;;;14.18;;
75930;SDS011;64609;47.052;15.462;2023-02-28T12:42:27;23.38;;;14.35;;
75930;SDS011;64609;47.052;15.462;2023-02-28T12:47:23;22.42;;;14.05;;
75930;SDS011;64609;47.052;15.462;2023-02-28T12:49:51;22.67;;;14.18;;
75930;SDS011;64609;47.052;15.462;2023-02-28T12:55:42;24.63;;;15.23;;
75930;SDS011;64609;47.052;15.462;2023-02-28T13:01:00;21.20;;;14.38;;
75930;SDS011;64609;47.052;15.462;2023-02-28T13:09:15;24.35;;;15.57;;
75930;SDS011;64609;47.052;15.462;2023-02-28T13:11:43;24.90;;;15.43;;
75930;SDS011;64609;47.052;15.462;2023-02-28T13:19:35;26.95;;;15.75;;
75930;SDS011;64609;47.052;15.462;2023-02-28T13:27:51;23.65;;;15.32;;
75930;SDS011;64609;47.052;15.462;2023-02-28T13:36:08;23.75;;;15.40;;
75930;SDS011;64609;47.052;15.462;2023-02-28T13:38:42;23.55;;;15.63;;
75930;SDS011;64609;47.052;15.462;2023-02-28T13:44:13;23.52;;;14.57;;
75930;SDS011;64609;47.052;15.462;2023-02-28T13:51:54;23.05;;;14.25;;
75930;SDS011;64609;47.052;15.462;2023-02-28T14:00:53;21.17;;;13.48;;
75930;SDS011;64609;47.052;15.462;2023-02-28T14:08:34;21.45;;;13.55;;
75930;SDS011;64609;47.052;15.462;2023-02-28T14:11:05;22.98;;;13.82;;
75930;SDS011;64609;47.052;15.462;2023-02-28T14:16:21;23.05;;;13.60;;
75930;SDS011;64609;47.052;15.462;2023-02-28T14:21:32;23.95;;;14.43;;
75930;SDS011;64609;47.052;15.462;2023-02-28T14:32:01;19.98;;;13.20;;
75930;SDS011;64609;47.052;15.462;2023-02-28T14:34:39;22.13;;;13.25;;
75930;SDS011;64609;47.052;15.462;2023-02-28T14:37:20;22.10;;;13.27;;
75930;SDS011;64609;47.052;15.462;2023-02-28T14:39:53;20.98;;;13.73;;
75930;SDS011;64609;47.052;15.462;2023-02-28T14:45:00;17.92;;;12.38;;
75930;SDS011;64609;47.052;15.462;2023-02-28T14:47:32;19.00;;;12.63;;
75930;SDS011;64609;47.052;15.462;2023-02-28T14:50:00;20.02;;;13.57;;
75930;SDS011;64609;47.052;15.462;2023-02-28T14:52:29;20.75;;;13.38;;
75930;SDS011;64609;47.052;15.462;2023-02-28T14:54:58;24.83;;;14.45;;
75930;SDS011;64609;47.052;15.462;2023-02-28T14:57:40;23.63;;;14.30;;
75930;SDS011;64609;47.052;15.462;2023-02-28T15:02:45;26.23;;;15.30;;
75930;SDS011;64609;47.052;15.462;2023-02-28T15:07:46;21.50;;;14.57;;
75930;SDS011;64609;47.052;15.462;2023-02-28T15:12:39;27.98;;;14.63;;
75930;SDS011;64609;47.052;15.462;2023-02-28T15:15:13;21.10;;;13.50;;
75930;SDS011;64609;47.052;15.462;2023-02-28T15:17:40;20.23;;;13.55;;
75930;SDS011;64609;47.052;15.462;2023-02-28T15:20:11;19.13;;;12.90;;
75930;SDS011;64609;47.052;15.462;2023-02-28T15:22:38;21.17;;;13.45;;
75930;SDS011;64609;47.052;15.462;2023-02-28T15:25:05;24.83;;;14.55;;
75930;SDS011;64609;47.052;15.462;2023-02-28T15:27:33;25.67;;;14.80;;
75930;SDS011;64609;47.052;15.462;2023-02-28T15:30:19;22.83;;;14.38;;
75930;SDS011;64609;47.052;15.462;2023-02-28T15:33:29;23.63;;;13.73;;
75930;SDS011;64609;47.052;15.462;2023-02-28T15:35:50;23.15;;;13.82;;
75930;SDS011;64609;47.052;15.462;2023-02-28T15:38:26;24.88;;;13.70;;
75930;SDS011;64609;47.052;15.462;2023-02-28T15:40:56;22.83;;;14.20;;
75930;SDS011;64609;47.052;15.462;2023-02-28T15:50:54;20.35;;;14.05;;
75930;SDS011;64609;47.052;15.462;2023-02-28T15:53:59;23.80;;;13.90;;
75930;SDS011;64609;47.052;15.462;2023-02-28T15:56:34;23.30;;;15.60;;
75930;SDS011;64609;47.052;15.462;2023-02-28T15:59:05;26.77;;;16.05;;
75930;SDS011;64609;47.052;15.462;2023-02-28T16:01:35;31.02;;;14.45;;
75930;SDS011;64609;47.052;15.462;2023-02-28T16:04:03;24.88;;;15.00;;
75930;SDS011;64609;47.052;15.462;2023-02-28T16:06:38;21.27;;;13.30;;
75930;SDS011;64609;47.052;15.462;2023-02-28T16:09:24;28.02;;;15.52;;
75930;SDS011;64609;47.052;15.462;2023-02-28T16:11:52;23.75;;;13.90;;
75930;SDS011;64609;47.052;15.462;2023-02-28T16:14:21;22.60;;;14.55;;
75930;SDS011;64609;47.052;15.462;2023-02-28T16:16:50;22.45;;;14.70;;
75930;SDS011;64609;47.052;15.462;2023-02-28T16:19:18;19.58;;;13.02;;
75930;SDS011;64609;47.052;15.462;2023-02-28T16:21:44;22.13;;;14.85;;
75930;SDS011;64609;47.052;15.462;2023-02-28T16:24:10;23.98;;;15.07;;
75930;SDS011;64609;47.052;15.462;2023-02-28T16:26:36;22.35;;;13.68;;
75930;SDS011;64609;47.052;15.462;2023-02-28T16:29:04;23.00;;;13.88;;
75930;SDS011;64609;47.052;15.462;2023-02-28T16:31:30;23.05;;;14.48;;
75930;SDS011;64609;47.052;15.462;2023-02-28T16:34:01;21.20;;;14.70;;
75930;SDS011;64609;47.052;15.462;2023-02-28T16:36:27;24.92;;;14.38;;
75930;SDS011;64609;47.052;15.462;2023-02-28T16:38:54;20.75;;;13.93;;
75930;SDS011;64609;47.052;15.462;2023-02-28T16:41:21;20.58;;;14.02;;
75930;SDS011;64609;47.052;15.462;2023-02-28T16:43:50;21.27;;;12.82;;
75930;SDS011;64609;47.052;15.462;2023-02-28T16:46:17;21.70;;;14.20;;
75930;SDS011;64609;47.052;15.462;2023-02-28T16:48:44;23.50;;;14.25;;
75930;SDS011;64609;47.052;15.462;2023-02-28T16:51:12;21.90;;;13.98;;
75930;SDS011;64609;47.052;15.462;2023-02-28T16:53:39;26.73;;;15.00;;
75930;SDS011;64609;47.052;15.462;2023-02-28T16:56:05;21.92;;;13.93;;
75930;SDS011;64609;47.052;15.462;2023-02-28T16:58:32;22.45;;;14.30;;
75930;SDS011;64609;47.052;15.462;2023-02-28T17:01:00;23.52;;;14.60;;
75930;SDS011;64609;47.052;15.462;2023-02-28T17:03:27;23.70;;;15.10;;
75930;SDS011;64609;47.052;15.462;2023-02-28T17:05:53;24.15;;;14.15;;
75930;SDS011;64609;47.052;15.462;2023-02-28T17:08:19;26.73;;;14.50;;
75930;SDS011;64609;47.052;15.462;2023-02-28T17:10:45;24.95;;;14.60;;
75930;SDS011;64609;47.052;15.462;2023-02-28T17:13:11;21.65;;;13.52;;
75930;SDS011;64609;47.052;15.462;2023-02-28T17:15:37;22.80;;;14.13;;
75930;SDS011;64609;47.052;15.462;2023-02-28T17:18:03;22.42;;;13.98;;
75930;SDS011;64609;47.052;15.462;2023-02-28T17:20:29;25.13;;;13.63;;
75930;SDS011;64609;47.052;15.462;2023-02-28T17:22:55;22.02;;;14.73;;
75930;SDS011;64609;47.052;15.462;2023-02-28T17:25:21;22.83;;;14.05;;